KMOX/MOX METAR and TAF weather

Enter ICAO airport designator
Station Type Date Time Source
KMOX METAR 2019/06/17 07:16 UTC NOAA

KMOX 170716Z AUTO 33003KT 10SM CLR 13/12 A2991 RMK AO2


Station Type Date Time Source
KMOX Decoded METAR 2019/06/17 07:16 UTC NOAA

Morris, Morris Municipal Airport, MN, United States (KMOX) 45-34N 095-58W
Jun 17, 2019 - 03:16 AM EDT / 2019.06.17 0716 UTC
Wind: from the NNW (330 degrees) at 3 MPH (3 KT):0
Visibility: 10 mile(s):0
Sky conditions: clear
Temperature: 55 F (13 C)
Dew Point: 53 F (12 C)
Relative Humidity: 93%
Pressure (altimeter): 29.91 in. Hg (1012 hPa)
ob: KMOX 170716Z AUTO 33003KT 10SM CLR 13/12 A2991 RMK AO2
cycle: 7

Station Type Date Time Source
KMOX TAF UTC NOAA

Error!

Example: see airport list